sensor_id;sensor_type;location;lat;lon;timestamp;pressure;altitude;pressure_sealevel;temperature;humidity
14269;BME280;7218;51.480;7.006;2022-08-11T00:02:27;101495.63;;;24.07;46.79
14269;BME280;7218;51.480;7.006;2022-08-11T00:04:57;101493.31;;;24.16;46.34
14269;BME280;7218;51.480;7.006;2022-08-11T00:07:27;101491.88;;;23.95;46.81
14269;BME280;7218;51.480;7.006;2022-08-11T00:09:56;101493.22;;;24.02;46.78
14269;BME280;7218;51.480;7.006;2022-08-11T00:12:24;101484.03;;;24.08;46.95
14269;BME280;7218;51.480;7.006;2022-08-11T00:14:58;101489.22;;;24.11;47.04
14269;BME280;7218;51.480;7.006;2022-08-11T00:17:27;101491.69;;;23.98;47.38
14269;BME280;7218;51.480;7.006;2022-08-11T00:20:03;101488.00;;;24.00;47.48
14269;BME280;7218;51.480;7.006;2022-08-11T00:22:31;101494.00;;;23.88;48.05
14269;BME280;7218;51.480;7.006;2022-08-11T00:25:00;101497.88;;;23.83;48.69
14269;BME280;7218;51.480;7.006;2022-08-11T00:27:33;101492.28;;;23.87;47.91
14269;BME280;7218;51.480;7.006;2022-08-11T00:30:00;101501.91;;;23.74;48.20
14269;BME280;7218;51.480;7.006;2022-08-11T00:32:28;101496.38;;;23.77;49.58
14269;BME280;7218;51.480;7.006;2022-08-11T00:34:56;101495.34;;;23.64;49.35
14269;BME280;7218;51.480;7.006;2022-08-11T00:37:23;101499.84;;;23.46;49.24
14269;BME280;7218;51.480;7.006;2022-08-11T00:39:52;101494.53;;;23.46;49.70
14269;BME280;7218;51.480;7.006;2022-08-11T00:42:26;101500.72;;;23.30;50.56
14269;BME280;7218;51.480;7.006;2022-08-11T00:45:05;101500.25;;;23.22;50.67
14269;BME280;7218;51.480;7.006;2022-08-11T00:47:47;101499.50;;;23.20;50.43
14269;BME280;7218;51.480;7.006;2022-08-11T00:50:24;101497.38;;;23.26;50.55
14269;BME280;7218;51.480;7.006;2022-08-11T00:53:24;101496.81;;;23.20;51.47
14269;BME280;7218;51.480;7.006;2022-08-11T00:56:15;101492.94;;;23.09;52.02
14269;BME280;7218;51.480;7.006;2022-08-11T00:59:15;101492.94;;;23.09;52.80
14269;BME280;7218;51.480;7.006;2022-08-11T01:01:57;101497.63;;;23.04;52.99
14269;BME280;7218;51.480;7.006;2022-08-11T01:05:03;101491.63;;;23.01;52.46
14269;BME280;7218;51.480;7.006;2022-08-11T01:11:19;101492.00;;;23.10;54.32
14269;BME280;7218;51.480;7.006;2022-08-11T01:14:15;101487.13;;;23.01;53.85
14269;BME280;7218;51.480;7.006;2022-08-11T01:17:05;101489.19;;;22.96;53.17
14269;BME280;7218;51.480;7.006;2022-08-11T01:20:14;101500.66;;;22.97;53.37
14269;BME280;7218;51.480;7.006;2022-08-11T01:26:29;101499.34;;;22.71;55.66
14269;BME280;7218;51.480;7.006;2022-08-11T01:29:31;101498.03;;;22.80;55.42
14269;BME280;7218;51.480;7.006;2022-08-11T01:32:26;101498.31;;;22.73;55.24
14269;BME280;7218;51.480;7.006;2022-08-11T01:35:34;101500.13;;;22.73;56.03
14269;BME280;7218;51.480;7.006;2022-08-11T01:38:41;101490.53;;;22.69;55.97
14269;BME280;7218;51.480;7.006;2022-08-11T01:41:30;101493.75;;;22.58;56.58
14269;BME280;7218;51.480;7.006;2022-08-11T01:44:24;101491.16;;;22.57;57.11
14269;BME280;7218;51.480;7.006;2022-08-11T01:47:13;101492.34;;;22.51;56.83
14269;BME280;7218;51.480;7.006;2022-08-11T01:50:09;101500.03;;;22.39;56.72
14269;BME280;7218;51.480;7.006;2022-08-11T01:52:55;101496.09;;;22.28;57.78
14269;BME280;7218;51.480;7.006;2022-08-11T01:55:31;101495.97;;;22.31;58.37
14269;BME280;7218;51.480;7.006;2022-08-11T01:58:06;101500.50;;;22.29;58.14
14269;BME280;7218;51.480;7.006;2022-08-11T02:00:39;101499.34;;;22.35;58.90
14269;BME280;7218;51.480;7.006;2022-08-11T02:03:15;101503.81;;;22.16;59.58
14269;BME280;7218;51.480;7.006;2022-08-11T02:05:56;101503.94;;;22.31;59.58
14269;BME280;7218;51.480;7.006;2022-08-11T02:08:42;101508.06;;;22.20;59.74
14269;BME280;7218;51.480;7.006;2022-08-11T02:11:20;101506.38;;;22.17;60.02
14269;BME280;7218;51.480;7.006;2022-08-11T02:13:59;101509.69;;;22.22;59.14
14269;BME280;7218;51.480;7.006;2022-08-11T02:16:35;101503.88;;;22.14;60.31
14269;BME280;7218;51.480;7.006;2022-08-11T02:19:11;101509.13;;;22.16;60.25
14269;BME280;7218;51.480;7.006;2022-08-11T02:22:05;101505.78;;;21.92;61.09
14269;BME280;7218;51.480;7.006;2022-08-11T02:24:59;101501.16;;;21.97;61.04
14269;BME280;7218;51.480;7.006;2022-08-11T04:08:59;101491.13;;;20.85;68.92
14269;BME280;7218;51.480;7.006;2022-08-11T04:11:45;101505.06;;;20.90;68.33
14269;BME280;7218;51.480;7.006;2022-08-11T04:14:41;101487.91;;;20.77;68.72
14269;BME280;7218;51.480;7.006;2022-08-11T04:20:50;101493.59;;;20.90;68.27
14269;BME280;7218;51.480;7.006;2022-08-11T04:23:27;101488.22;;;20.91;68.58
14269;BME280;7218;51.480;7.006;2022-08-11T04:29:34;101487.00;;;20.98;68.01
14269;BME280;7218;51.480;7.006;2022-08-11T04:32:27;101482.16;;;21.08;67.94
14269;BME280;7218;51.480;7.006;2022-08-11T04:35:12;101483.03;;;21.09;67.71
14269;BME280;7218;51.480;7.006;2022-08-11T04:40:42;101487.25;;;21.14;66.90
14269;BME280;7218;51.480;7.006;2022-08-11T04:46:29;101490.63;;;21.18;67.06
14269;BME280;7218;51.480;7.006;2022-08-11T04:49:34;101482.91;;;21.12;68.01
14269;BME280;7218;51.480;7.006;2022-08-11T04:52:39;101490.22;;;21.07;68.34
14269;BME280;7218;51.480;7.006;2022-08-11T04:55:39;101495.44;;;21.08;68.20
14269;BME280;7218;51.480;7.006;2022-08-11T04:58:43;101489.00;;;21.34;66.98
14269;BME280;7218;51.480;7.006;2022-08-11T05:01:39;101489.75;;;21.17;66.46
14269;BME280;7218;51.480;7.006;2022-08-11T05:04:44;101485.75;;;21.27;67.09
14269;BME280;7218;51.480;7.006;2022-08-11T05:11:01;101494.31;;;21.34;67.46
14269;BME280;7218;51.480;7.006;2022-08-11T05:13:34;101494.69;;;21.26;67.05
14269;BME280;7218;51.480;7.006;2022-08-11T05:16:25;101495.03;;;21.37;66.41
14269;BME280;7218;51.480;7.006;2022-08-11T05:19:16;101499.38;;;21.40;66.32
14269;BME280;7218;51.480;7.006;2022-08-11T05:22:02;101503.28;;;21.52;66.69
14269;BME280;7218;51.480;7.006;2022-08-11T05:24:50;101510.16;;;21.56;66.41
14269;BME280;7218;51.480;7.006;2022-08-11T05:27:49;101506.84;;;21.51;66.41
14269;BME280;7218;51.480;7.006;2022-08-11T05:30:39;101515.19;;;21.62;66.17
14269;BME280;7218;51.480;7.006;2022-08-11T05:33:34;101515.75;;;21.68;64.76
14269;BME280;7218;51.480;7.006;2022-08-11T05:36:26;101518.06;;;21.76;65.06
14269;BME280;7218;51.480;7.006;2022-08-11T05:38:56;101517.13;;;21.77;64.67
14269;BME280;7218;51.480;7.006;2022-08-11T05:41:41;101522.31;;;21.80;65.47
14269;BME280;7218;51.480;7.006;2022-08-11T05:44:26;101513.75;;;21.92;64.99
14269;BME280;7218;51.480;7.006;2022-08-11T05:47:20;101522.13;;;22.03;64.79
14269;BME280;7218;51.480;7.006;2022-08-11T05:50:07;101508.78;;;22.05;64.09
14269;BME280;7218;51.480;7.006;2022-08-11T05:52:54;101507.91;;;22.04;65.24
14269;BME280;7218;51.480;7.006;2022-08-11T05:55:40;101506.06;;;22.06;65.94
14269;BME280;7218;51.480;7.006;2022-08-11T05:58:26;101505.91;;;22.09;65.64
14269;BME280;7218;51.480;7.006;2022-08-11T06:00:58;101504.81;;;22.13;65.09
14269;BME280;7218;51.480;7.006;2022-08-11T06:03:27;101508.91;;;22.20;64.12
14269;BME280;7218;51.480;7.006;2022-08-11T06:05:55;101503.94;;;22.31;62.59
14269;BME280;7218;51.480;7.006;2022-08-11T06:08:29;101506.16;;;22.41;63.53
14269;BME280;7218;51.480;7.006;2022-08-11T06:11:02;101499.59;;;22.48;62.02
14269;BME280;7218;51.480;7.006;2022-08-11T06:13:29;101514.59;;;22.49;64.47
14269;BME280;7218;51.480;7.006;2022-08-11T06:15:57;101501.00;;;22.55;64.21
14269;BME280;7218;51.480;7.006;2022-08-11T06:18:24;101507.44;;;22.68;61.34
14269;BME280;7218;51.480;7.006;2022-08-11T06:20:53;101505.56;;;22.70;61.43
14269;BME280;7218;51.480;7.006;2022-08-11T06:23:22;101508.09;;;22.73;59.67
14269;BME280;7218;51.480;7.006;2022-08-11T06:25:52;101509.03;;;22.72;58.16
14269;BME280;7218;51.480;7.006;2022-08-11T06:28:27;101499.50;;;22.85;57.95
14269;BME280;7218;51.480;7.006;2022-08-11T06:30:57;101501.94;;;22.90;57.92
14269;BME280;7218;51.480;7.006;2022-08-11T06:33:29;101500.44;;;23.01;57.91
14269;BME280;7218;51.480;7.006;2022-08-11T06:36:02;101498.00;;;23.14;59.11
14269;BME280;7218;51.480;7.006;2022-08-11T06:38:50;101493.06;;;23.24;58.29
14269;BME280;7218;51.480;7.006;2022-08-11T06:41:27;101497.44;;;23.25;57.10
14269;BME280;7218;51.480;7.006;2022-08-11T06:44:02;101499.44;;;23.37;57.67
14269;BME280;7218;51.480;7.006;2022-08-11T06:46:31;101503.13;;;23.51;56.32
14269;BME280;7218;51.480;7.006;2022-08-11T06:49:03;101498.94;;;23.63;56.69
14269;BME280;7218;51.480;7.006;2022-08-11T06:51:33;101496.81;;;23.70;56.88
14269;BME280;7218;51.480;7.006;2022-08-11T06:54:00;101508.16;;;23.73;57.32
14269;BME280;7218;51.480;7.006;2022-08-11T06:56:30;101496.25;;;23.80;57.66
14269;BME280;7218;51.480;7.006;2022-08-11T06:59:17;101498.53;;;23.86;54.75
14269;BME280;7218;51.480;7.006;2022-08-11T07:02:06;101503.81;;;24.03;55.14
14269;BME280;7218;51.480;7.006;2022-08-11T07:04:40;101508.19;;;24.05;56.25
14269;BME280;7218;51.480;7.006;2022-08-11T07:07:30;101505.19;;;24.26;53.63
14269;BME280;7218;51.480;7.006;2022-08-11T07:10:42;101508.13;;;24.37;52.82
14269;BME280;7218;51.480;7.006;2022-08-11T07:13:34;101503.84;;;24.35;50.59
14269;BME280;7218;51.480;7.006;2022-08-11T07:16:25;101502.53;;;24.42;50.82
14269;BME280;7218;51.480;7.006;2022-08-11T07:18:54;101503.13;;;24.47;50.15
14269;BME280;7218;51.480;7.006;2022-08-11T07:21:50;101497.34;;;24.55;50.04
14269;BME280;7218;51.480;7.006;2022-08-11T07:24:44;101495.41;;;24.72;49.54
14269;BME280;7218;51.480;7.006;2022-08-11T07:27:35;101500.38;;;24.78;49.09
14269;BME280;7218;51.480;7.006;2022-08-11T07:30:23;101504.44;;;24.85;47.99
14269;BME280;7218;51.480;7.006;2022-08-11T07:32:53;101503.13;;;24.93;48.38
14269;BME280;7218;51.480;7.006;2022-08-11T07:35:23;101502.88;;;25.11;46.94
14269;BME280;7218;51.480;7.006;2022-08-11T07:37:57;101504.03;;;25.21;46.63
14269;BME280;7218;51.480;7.006;2022-08-11T07:40:25;101497.97;;;25.34;46.08
14269;BME280;7218;51.480;7.006;2022-08-11T07:42:52;101498.91;;;25.47;46.20
14269;BME280;7218;51.480;7.006;2022-08-11T07:45:23;101500.94;;;25.57;45.10
14269;BME280;7218;51.480;7.006;2022-08-11T07:48:08;101498.00;;;25.62;45.15
14269;BME280;7218;51.480;7.006;2022-08-11T07:50:53;101496.16;;;25.77;44.90
14269;BME280;7218;51.480;7.006;2022-08-11T07:53:38;101490.91;;;25.89;44.36
14269;BME280;7218;51.480;7.006;2022-08-11T07:56:05;101488.38;;;26.00;44.35
14269;BME280;7218;51.480;7.006;2022-08-11T07:58:34;101493.25;;;26.08;43.85
14269;BME280;7218;51.480;7.006;2022-08-11T08:01:22;101491.34;;;26.24;43.57
14269;BME280;7218;51.480;7.006;2022-08-11T08:04:09;101487.50;;;26.28;43.84
14269;BME280;7218;51.480;7.006;2022-08-11T08:06:55;101488.69;;;26.37;43.72
14269;BME280;7218;51.480;7.006;2022-08-11T08:09:41;101482.66;;;26.47;42.71
14269;BME280;7218;51.480;7.006;2022-08-11T08:12:26;101489.66;;;26.63;42.17
14269;BME280;7218;51.480;7.006;2022-08-11T08:15:13;101479.81;;;26.76;42.36
14269;BME280;7218;51.480;7.006;2022-08-11T08:18:00;101485.63;;;26.82;42.17
14269;BME280;7218;51.480;7.006;2022-08-11T08:20:30;101488.88;;;27.00;42.09
14269;BME280;7218;51.480;7.006;2022-08-11T08:23:00;101487.50;;;27.07;40.34
14269;BME280;7218;51.480;7.006;2022-08-11T08:25:28;101494.16;;;27.14;40.15
14269;BME280;7218;51.480;7.006;2022-08-11T08:27:57;101487.63;;;27.18;40.87
14269;BME280;7218;51.480;7.006;2022-08-11T08:30:25;101488.16;;;27.23;40.88
14269;BME280;7218;51.480;7.006;2022-08-11T08:33:07;101492.66;;;27.35;40.91
14269;BME280;7218;51.480;7.006;2022-08-11T08:35:36;101490.50;;;27.40;40.68
14269;BME280;7218;51.480;7.006;2022-08-11T08:38:03;101493.09;;;27.55;40.36
14269;BME280;7218;51.480;7.006;2022-08-11T08:40:30;101491.28;;;27.68;40.28
14269;BME280;7218;51.480;7.006;2022-08-11T08:42:58;101493.91;;;27.80;39.99
14269;BME280;7218;51.480;7.006;2022-08-11T08:45:28;101492.22;;;27.79;39.75
14269;BME280;7218;51.480;7.006;2022-08-11T08:47:58;101487.88;;;28.02;38.96
14269;BME280;7218;51.480;7.006;2022-08-11T08:50:30;101485.47;;;28.10;38.92
14269;BME280;7218;51.480;7.006;2022-08-11T08:53:11;101496.06;;;28.24;39.22
14269;BME280;7218;51.480;7.006;2022-08-11T08:55:39;101489.25;;;28.44;38.54
14269;BME280;7218;51.480;7.006;2022-08-11T08:58:07;101482.69;;;28.59;38.08
14269;BME280;7218;51.480;7.006;2022-08-11T09:00:38;101494.16;;;28.85;38.18
14269;BME280;7218;51.480;7.006;2022-08-11T09:03:06;101489.59;;;28.98;37.09
14269;BME280;7218;51.480;7.006;2022-08-11T09:05:34;101494.00;;;29.22;36.65
14269;BME280;7218;51.480;7.006;2022-08-11T09:08:01;101494.25;;;29.30;36.75
14269;BME280;7218;51.480;7.006;2022-08-11T09:10:28;101492.09;;;29.35;35.78
14269;BME280;7218;51.480;7.006;2022-08-11T09:12:56;101496.16;;;29.63;35.56
14269;BME280;7218;51.480;7.006;2022-08-11T09:15:24;101491.13;;;29.69;35.05
14269;BME280;7218;51.480;7.006;2022-08-11T09:17:54;101496.28;;;29.94;34.40
14269;BME280;7218;51.480;7.006;2022-08-11T09:20:32;101495.41;;;30.05;34.12
14269;BME280;7218;51.480;7.006;2022-08-11T09:23:03;101490.34;;;30.23;33.75
14269;BME280;7218;51.480;7.006;2022-08-11T09:25:50;101487.84;;;30.42;33.48
14269;BME280;7218;51.480;7.006;2022-08-11T09:28:36;101487.84;;;30.74;33.54
14269;BME280;7218;51.480;7.006;2022-08-11T09:31:04;101487.91;;;30.84;32.84
14269;BME280;7218;51.480;7.006;2022-08-11T09:33:32;101485.22;;;30.84;31.89
14269;BME280;7218;51.480;7.006;2022-08-11T09:36:00;101477.31;;;31.03;32.01
14269;BME280;7218;51.480;7.006;2022-08-11T09:38:50;101475.25;;;31.16;31.46
14269;BME280;7218;51.480;7.006;2022-08-11T09:41:34;101476.91;;;31.58;31.54
14269;BME280;7218;51.480;7.006;2022-08-11T09:44:02;101479.84;;;31.86;30.73
14269;BME280;7218;51.480;7.006;2022-08-11T09:46:47;101479.81;;;32.16;30.01
14269;BME280;7218;51.480;7.006;2022-08-11T09:49:18;101481.81;;;32.33;29.53
14269;BME280;7218;51.480;7.006;2022-08-11T09:51:46;101475.16;;;32.47;28.45
14269;BME280;7218;51.480;7.006;2022-08-11T09:54:17;101473.03;;;32.70;29.61
14269;BME280;7218;51.480;7.006;2022-08-11T09:56:44;101470.63;;;32.76;28.06
14269;BME280;7218;51.480;7.006;2022-08-11T09:59:25;101468.59;;;32.88;26.92
14269;BME280;7218;51.480;7.006;2022-08-11T10:01:56;101469.13;;;33.20;28.73
14269;BME280;7218;51.480;7.006;2022-08-11T10:04:26;101475.88;;;33.44;27.77
14269;BME280;7218;51.480;7.006;2022-08-11T10:07:01;101476.94;;;33.70;29.50
14269;BME280;7218;51.480;7.006;2022-08-11T10:09:35;101481.94;;;33.92;27.33
14269;BME280;7218;51.480;7.006;2022-08-11T10:12:06;101475.63;;;34.01;26.20
14269;BME280;7218;51.480;7.006;2022-08-11T10:14:37;101466.47;;;34.02;26.71
14269;BME280;7218;51.480;7.006;2022-08-11T10:17:23;101463.84;;;34.20;26.98
14269;BME280;7218;51.480;7.006;2022-08-11T10:19:51;101461.44;;;34.35;27.21
14269;BME280;7218;51.480;7.006;2022-08-11T10:22:22;101456.47;;;34.48;26.56
14269;BME280;7218;51.480;7.006;2022-08-11T10:25:09;101461.25;;;34.54;26.31
14269;BME280;7218;51.480;7.006;2022-08-11T10:27:54;101450.19;;;34.47;25.97
14269;BME280;7218;51.480;7.006;2022-08-11T10:30:24;101446.94;;;34.62;24.83
14269;BME280;7218;51.480;7.006;2022-08-11T10:33:10;101449.66;;;34.79;25.35
14269;BME280;7218;51.480;7.006;2022-08-11T10:35:55;101439.13;;;35.02;26.01
14269;BME280;7218;51.480;7.006;2022-08-11T10:38:23;101438.34;;;35.10;25.19
14269;BME280;7218;51.480;7.006;2022-08-11T10:40:53;101444.91;;;35.25;25.17
14269;BME280;7218;51.480;7.006;2022-08-11T10:43:36;101438.78;;;35.23;23.22
14269;BME280;7218;51.480;7.006;2022-08-11T10:46:06;101441.00;;;35.02;24.58
14269;BME280;7218;51.480;7.006;2022-08-11T10:48:53;101438.69;;;35.40;24.98
14269;BME280;7218;51.480;7.006;2022-08-11T10:51:21;101433.09;;;35.76;24.42
14269;BME280;7218;51.480;7.006;2022-08-11T10:54:06;101431.09;;;35.86;24.16
14269;BME280;7218;51.480;7.006;2022-08-11T10:56:53;101442.44;;;35.48;23.54
14269;BME280;7218;51.480;7.006;2022-08-11T10:59:37;101429.34;;;35.09;22.16
14269;BME280;7218;51.480;7.006;2022-08-11T11:02:05;101421.81;;;35.63;24.73
14269;BME280;7218;51.480;7.006;2022-08-11T11:04:39;101420.41;;;35.93;23.24
14269;BME280;7218;51.480;7.006;2022-08-11T11:07:15;101417.38;;;36.12;24.26
14269;BME280;7218;51.480;7.006;2022-08-11T11:09:47;101426.63;;;36.59;26.70
14269;BME280;7218;51.480;7.006;2022-08-11T11:12:24;101436.50;;;36.69;22.09
14269;BME280;7218;51.480;7.006;2022-08-11T11:15:11;101429.13;;;37.01;23.19
14269;BME280;7218;51.480;7.006;2022-08-11T11:18:00;101421.00;;;37.48;22.35
14269;BME280;7218;51.480;7.006;2022-08-11T11:20:34;101421.69;;;37.81;22.98
14269;BME280;7218;51.480;7.006;2022-08-11T11:23:06;101422.88;;;38.18;22.84
14269;BME280;7218;51.480;7.006;2022-08-11T11:25:41;101422.16;;;38.24;21.08
14269;BME280;7218;51.480;7.006;2022-08-11T11:28:42;101409.22;;;38.63;20.59
14269;BME280;7218;51.480;7.006;2022-08-11T11:31:26;101407.38;;;37.87;20.14
14269;BME280;7218;51.480;7.006;2022-08-11T11:34:11;101395.50;;;38.34;21.97
14269;BME280;7218;51.480;7.006;2022-08-11T11:36:44;101398.09;;;39.02;19.96
14269;BME280;7218;51.480;7.006;2022-08-11T11:39:16;101400.78;;;39.76;21.64
14269;BME280;7218;51.480;7.006;2022-08-11T11:41:44;101407.84;;;39.70;19.02
14269;BME280;7218;51.480;7.006;2022-08-11T11:44:13;101393.03;;;40.15;19.17
14269;BME280;7218;51.480;7.006;2022-08-11T11:46:40;101399.38;;;40.43;19.46
14269;BME280;7218;51.480;7.006;2022-08-11T11:49:09;101391.31;;;40.35;18.39
14269;BME280;7218;51.480;7.006;2022-08-11T11:51:36;101388.63;;;40.63;18.04
14269;BME280;7218;51.480;7.006;2022-08-11T11:54:03;101390.06;;;41.21;19.23
14269;BME280;7218;51.480;7.006;2022-08-11T11:56:31;101391.72;;;41.57;20.23
14269;BME280;7218;51.480;7.006;2022-08-11T11:58:58;101389.25;;;41.68;18.77
14269;BME280;7218;51.480;7.006;2022-08-11T12:01:44;101394.50;;;41.63;17.84
14269;BME280;7218;51.480;7.006;2022-08-11T12:04:12;101388.16;;;41.63;18.73
14269;BME280;7218;51.480;7.006;2022-08-11T12:06:40;101377.88;;;41.85;18.73
14269;BME280;7218;51.480;7.006;2022-08-11T12:09:10;101376.47;;;41.95;17.98
14269;BME280;7218;51.480;7.006;2022-08-11T12:11:39;101379.81;;;41.91;17.45
14269;BME280;7218;51.480;7.006;2022-08-11T12:14:23;101384.41;;;41.23;17.07
14269;BME280;7218;51.480;7.006;2022-08-11T12:16:55;101372.88;;;41.00;18.03
14269;BME280;7218;51.480;7.006;2022-08-11T12:19:23;101381.31;;;41.87;18.29
14269;BME280;7218;51.480;7.006;2022-08-11T12:21:54;101378.16;;;41.96;17.32
14269;BME280;7218;51.480;7.006;2022-08-11T12:24:38;101367.44;;;42.47;18.68
14269;BME280;7218;51.480;7.006;2022-08-11T12:27:23;101368.22;;;43.01;16.54
14269;BME280;7218;51.480;7.006;2022-08-11T12:29:54;101368.63;;;43.17;16.20
14269;BME280;7218;51.480;7.006;2022-08-11T12:32:24;101355.41;;;42.62;16.96
14269;BME280;7218;51.480;7.006;2022-08-11T12:34:51;101345.91;;;42.71;18.45
14269;BME280;7218;51.480;7.006;2022-08-11T12:37:22;101350.53;;;43.48;16.09
14269;BME280;7218;51.480;7.006;2022-08-11T12:39:57;101342.84;;;43.63;15.91
14269;BME280;7218;51.480;7.006;2022-08-11T12:42:43;101339.94;;;43.45;15.75
14269;BME280;7218;51.480;7.006;2022-08-11T12:45:28;101334.19;;;44.22;16.45
14269;BME280;7218;51.480;7.006;2022-08-11T12:48:04;101334.66;;;44.62;16.36
14269;BME280;7218;51.480;7.006;2022-08-11T12:50:53;101332.66;;;44.51;15.92
14269;BME280;7218;51.480;7.006;2022-08-11T12:53:42;101339.44;;;44.91;17.42
14269;BME280;7218;51.480;7.006;2022-08-11T12:56:10;101332.72;;;45.06;15.60
14269;BME280;7218;51.480;7.006;2022-08-11T12:58:55;101336.34;;;45.36;15.72
14269;BME280;7218;51.480;7.006;2022-08-11T13:01:41;101336.47;;;45.59;14.82
14269;BME280;7218;51.480;7.006;2022-08-11T13:04:27;101329.47;;;46.16;14.62
14269;BME280;7218;51.480;7.006;2022-08-11T13:07:13;101330.59;;;46.09;14.47
14269;BME280;7218;51.480;7.006;2022-08-11T13:09:42;101327.22;;;45.83;13.78
14269;BME280;7218;51.480;7.006;2022-08-11T13:12:09;101328.34;;;46.06;14.85
14269;BME280;7218;51.480;7.006;2022-08-11T13:14:54;101312.19;;;46.21;13.37
14269;BME280;7218;51.480;7.006;2022-08-11T13:17:21;101317.53;;;46.04;14.14
14269;BME280;7218;51.480;7.006;2022-08-11T13:19:50;101328.63;;;46.16;14.69
14269;BME280;7218;51.480;7.006;2022-08-11T13:22:18;101312.78;;;46.46;14.49
14269;BME280;7218;51.480;7.006;2022-08-11T13:24:46;101310.41;;;46.61;14.08
14269;BME280;7218;51.480;7.006;2022-08-11T13:27:15;101312.84;;;47.38;14.67
14269;BME280;7218;51.480;7.006;2022-08-11T13:29:45;101302.19;;;47.30;14.22
14269;BME280;7218;51.480;7.006;2022-08-11T13:32:12;101310.13;;;47.55;13.60
14269;BME280;7218;51.480;7.006;2022-08-11T13:34:40;101312.66;;;47.56;14.79
14269;BME280;7218;51.480;7.006;2022-08-11T13:37:09;101308.59;;;47.75;14.43
14269;BME280;7218;51.480;7.006;2022-08-11T13:39:41;101297.13;;;47.67;13.25
14269;BME280;7218;51.480;7.006;2022-08-11T13:42:13;101296.06;;;47.56;14.91
14269;BME280;7218;51.480;7.006;2022-08-11T13:44:41;101303.38;;;47.79;14.01
14269;BME280;7218;51.480;7.006;2022-08-11T13:47:11;101296.50;;;47.98;12.93
14269;BME280;7218;51.480;7.006;2022-08-11T13:49:39;101306.28;;;48.17;12.57
14269;BME280;7218;51.480;7.006;2022-08-11T13:52:11;101303.59;;;48.06;12.80
14269;BME280;7218;51.480;7.006;2022-08-11T13:54:39;101291.66;;;47.43;12.50
14269;BME280;7218;51.480;7.006;2022-08-11T13:57:08;101286.41;;;47.59;12.47
14269;BME280;7218;51.480;7.006;2022-08-11T13:59:36;101288.47;;;48.30;13.60
14269;BME280;7218;51.480;7.006;2022-08-11T14:02:06;101294.44;;;48.77;13.34
14269;BME280;7218;51.480;7.006;2022-08-11T14:04:39;101289.75;;;48.22;14.14
14269;BME280;7218;51.480;7.006;2022-08-11T14:07:08;101281.88;;;48.53;12.63
14269;BME280;7218;51.480;7.006;2022-08-11T14:09:39;101276.69;;;49.00;13.41
14269;BME280;7218;51.480;7.006;2022-08-11T14:12:10;101283.84;;;49.17;13.01
14269;BME280;7218;51.480;7.006;2022-08-11T14:14:59;101284.75;;;49.77;13.45
14269;BME280;7218;51.480;7.006;2022-08-11T14:17:28;101285.84;;;49.49;12.48
14269;BME280;7218;51.480;7.006;2022-08-11T14:20:00;101282.69;;;49.67;12.34
14269;BME280;7218;51.480;7.006;2022-08-11T14:22:28;101279.91;;;49.99;12.41
14269;BME280;7218;51.480;7.006;2022-08-11T14:24:56;101283.41;;;50.16;12.35
14269;BME280;7218;51.480;7.006;2022-08-11T14:27:24;101273.75;;;49.87;12.09
14269;BME280;7218;51.480;7.006;2022-08-11T14:29:55;101269.56;;;48.82;12.00
14269;BME280;7218;51.480;7.006;2022-08-11T14:32:24;101273.63;;;48.96;11.65
14269;BME280;7218;51.480;7.006;2022-08-11T14:34:51;101274.72;;;48.95;11.23
14269;BME280;7218;51.480;7.006;2022-08-11T14:37:20;101276.00;;;49.36;11.61
14269;BME280;7218;51.480;7.006;2022-08-11T14:39:48;101272.72;;;49.66;13.04
14269;BME280;7218;51.480;7.006;2022-08-11T14:42:18;101275.13;;;49.89;11.74
14269;BME280;7218;51.480;7.006;2022-08-11T14:45:11;101265.63;;;49.80;11.50
14269;BME280;7218;51.480;7.006;2022-08-11T14:47:56;101259.25;;;49.80;12.34
14269;BME280;7218;51.480;7.006;2022-08-11T14:50:24;101261.47;;;49.51;11.27
14269;BME280;7218;51.480;7.006;2022-08-11T14:52:55;101255.53;;;49.69;11.49
14269;BME280;7218;51.480;7.006;2022-08-11T14:55:23;101257.94;;;49.92;11.57
14269;BME280;7218;51.480;7.006;2022-08-11T14:58:11;101257.81;;;49.77;11.10
14269;BME280;7218;51.480;7.006;2022-08-11T15:00:40;101252.47;;;50.03;11.67
14269;BME280;7218;51.480;7.006;2022-08-11T15:03:09;101255.97;;;49.88;10.62
14269;BME280;7218;51.480;7.006;2022-08-11T15:05:37;101254.91;;;50.31;10.80
14269;BME280;7218;51.480;7.006;2022-08-11T15:08:06;101255.75;;;49.94;10.60
14269;BME280;7218;51.480;7.006;2022-08-11T15:10:34;101251.00;;;49.90;11.11
14269;BME280;7218;51.480;7.006;2022-08-11T15:13:01;101246.69;;;50.46;11.59
14269;BME280;7218;51.480;7.006;2022-08-11T15:15:30;101237.69;;;49.87;10.95
14269;BME280;7218;51.480;7.006;2022-08-11T15:18:16;101233.53;;;50.94;10.81
14269;BME280;7218;51.480;7.006;2022-08-11T15:20:43;101237.44;;;51.03;10.63
14269;BME280;7218;51.480;7.006;2022-08-11T15:23:28;101227.25;;;50.46;10.90
14269;BME280;7218;51.480;7.006;2022-08-11T15:26:14;101227.09;;;50.21;10.33
14269;BME280;7218;51.480;7.006;2022-08-11T15:28:45;101221.75;;;50.61;11.60
14269;BME280;7218;51.480;7.006;2022-08-11T15:31:32;101223.50;;;50.83;10.26
14269;BME280;7218;51.480;7.006;2022-08-11T15:34:19;101216.38;;;50.03;10.88
14269;BME280;7218;51.480;7.006;2022-08-11T15:37:07;101222.41;;;49.89;10.49
14269;BME280;7218;51.480;7.006;2022-08-11T15:40:00;101216.28;;;49.50;10.74
14269;BME280;7218;51.480;7.006;2022-08-11T15:42:49;101219.59;;;49.52;10.49
14269;BME280;7218;51.480;7.006;2022-08-11T15:45:36;101210.56;;;49.67;10.91
14269;BME280;7218;51.480;7.006;2022-08-11T15:48:26;101205.00;;;49.67;10.81
14269;BME280;7218;51.480;7.006;2022-08-11T15:50:57;101207.50;;;49.32;10.46
14269;BME280;7218;51.480;7.006;2022-08-11T15:53:31;101211.16;;;49.10;11.05
14269;BME280;7218;51.480;7.006;2022-08-11T15:56:01;101201.16;;;48.61;10.68
14269;BME280;7218;51.480;7.006;2022-08-11T15:58:31;101190.84;;;48.35;11.51
14269;BME280;7218;51.480;7.006;2022-08-11T16:01:19;101200.19;;;48.50;11.27